Ascutney, Vermont
Current Conditions -  °F | °C
As of 7:54 AM on Thursday 18 Dec 2014 (Local Time) from KVSF Reporting Station
Overcast Overcast  
Wind Chill: 36°   Ceiling: 2600
Heat Index: 36°   Visibility: 10mi
Dew Point: 27°   Wind: 3mph
Humidity: 70%   Direction: NA
Pressure: 29.78"   Gusts: NA
Location:  43.41°N, 72.41°W
Report Text: KVSF 181254Z AUTO VRB03KT 10SM OVC026 02/M03 A2978 RMK AO2 SLP090 T00221028 TSNO
Loading
Personal Weather Stations






























Interactive Weather Map New forecast layout! Learn more

10-Day Weather Forecast

Advertisements
Track Severe Weather on mobile